Terminal Aerodrome Forecast
Issued by NWS

Home | Current Version | Previous Version | Text Only | Print | Product List | Glossary On
Versions: 1 2 3 4 5 6 7 8 9 10 11 12
000
FTUS42 TJSJ 222300 RRA
TAFNCM
TAF
TNCM 222340Z 2300/2324 12012KT P6SM VCTS SCT019CB BKN050
      TEMPO 2300/2301 14010KT 6SM -TSRA BKN030CB=

USA.gov is the U.S. government's official web portal to all federal, state and local government web resources and services.